sensor_id;sensor_type;location;lat;lon;timestamp;temperature;humidity
22996;DHT22;11664;49.774;8.650;2023-04-26T00:01:16;4.50;99.90
22996;DHT22;11664;49.774;8.650;2023-04-26T00:03:42;4.50;99.90
22996;DHT22;11664;49.774;8.650;2023-04-26T00:06:07;4.40;99.90
22996;DHT22;11664;49.774;8.650;2023-04-26T00:08:35;4.40;99.90
22996;DHT22;11664;49.774;8.650;2023-04-26T00:11:00;4.40;99.90
22996;DHT22;11664;49.774;8.650;2023-04-26T00:13:26;4.40;99.90
22996;DHT22;11664;49.774;8.650;2023-04-26T00:15:52;4.30;99.90
22996;DHT22;11664;49.774;8.650;2023-04-26T00:18:17;4.30;99.90
22996;DHT22;11664;49.774;8.650;2023-04-26T00:20:43;4.30;99.90
22996;DHT22;11664;49.774;8.650;2023-04-26T00:23:08;4.30;99.90
22996;DHT22;11664;49.774;8.650;2023-04-26T00:25:35;4.30;99.90
22996;DHT22;11664;49.774;8.650;2023-04-26T00:28:01;4.20;99.90
22996;DHT22;11664;49.774;8.650;2023-04-26T00:30:27;4.30;99.90
22996;DHT22;11664;49.774;8.650;2023-04-26T00:32:52;4.10;99.90
22996;DHT22;11664;49.774;8.650;2023-04-26T00:35:18;4.10;99.90
22996;DHT22;11664;49.774;8.650;2023-04-26T00:37:44;4.10;99.90
22996;DHT22;11664;49.774;8.650;2023-04-26T00:40:11;4.00;99.90
22996;DHT22;11664;49.774;8.650;2023-04-26T00:42:38;4.00;99.90
22996;DHT22;11664;49.774;8.650;2023-04-26T00:45:05;4.00;99.90
22996;DHT22;11664;49.774;8.650;2023-04-26T00:47:31;4.00;99.90
22996;DHT22;11664;49.774;8.650;2023-04-26T00:49:58;4.00;99.90
22996;DHT22;11664;49.774;8.650;2023-04-26T00:52:24;3.90;99.90
22996;DHT22;11664;49.774;8.650;2023-04-26T00:54:50;3.90;99.90
22996;DHT22;11664;49.774;8.650;2023-04-26T00:57:16;3.90;99.90
22996;DHT22;11664;49.774;8.650;2023-04-26T00:59:41;3.90;99.90
22996;DHT22;11664;49.774;8.650;2023-04-26T01:02:07;3.90;99.90
22996;DHT22;11664;49.774;8.650;2023-04-26T01:04:33;4.00;99.90
22996;DHT22;11664;49.774;8.650;2023-04-26T01:07:00;4.00;99.90
22996;DHT22;11664;49.774;8.650;2023-04-26T01:09:28;4.00;99.90
22996;DHT22;11664;49.774;8.650;2023-04-26T01:11:55;4.00;99.90
22996;DHT22;11664;49.774;8.650;2023-04-26T01:14:23;3.90;99.90
22996;DHT22;11664;49.774;8.650;2023-04-26T01:16:49;3.90;99.90
22996;DHT22;11664;49.774;8.650;2023-04-26T01:19:15;3.80;99.90
22996;DHT22;11664;49.774;8.650;2023-04-26T01:21:41;3.80;99.90
22996;DHT22;11664;49.774;8.650;2023-04-26T01:24:11;3.80;99.90
22996;DHT22;11664;49.774;8.650;2023-04-26T01:26:38;3.70;99.90
22996;DHT22;11664;49.774;8.650;2023-04-26T01:29:20;3.80;99.90
22996;DHT22;11664;49.774;8.650;2023-04-26T01:35:17;3.70;99.90
22996;DHT22;11664;49.774;8.650;2023-04-26T01:37:43;3.70;99.90
22996;DHT22;11664;49.774;8.650;2023-04-26T01:40:09;3.70;99.90
22996;DHT22;11664;49.774;8.650;2023-04-26T01:42:34;3.60;99.90
22996;DHT22;11664;49.774;8.650;2023-04-26T01:45:00;3.60;99.90
22996;DHT22;11664;49.774;8.650;2023-04-26T01:47:26;3.50;99.90
22996;DHT22;11664;49.774;8.650;2023-04-26T01:49:51;3.50;99.90
22996;DHT22;11664;49.774;8.650;2023-04-26T01:52:17;3.50;99.90
22996;DHT22;11664;49.774;8.650;2023-04-26T01:54:43;3.50;99.90
22996;DHT22;11664;49.774;8.650;2023-04-26T01:57:08;3.50;99.90
22996;DHT22;11664;49.774;8.650;2023-04-26T01:59:34;3.50;99.90
22996;DHT22;11664;49.774;8.650;2023-04-26T02:01:59;3.50;99.90
22996;DHT22;11664;49.774;8.650;2023-04-26T02:04:26;3.50;99.90
22996;DHT22;11664;49.774;8.650;2023-04-26T02:06:51;3.50;99.90
22996;DHT22;11664;49.774;8.650;2023-04-26T02:09:17;3.50;99.90
22996;DHT22;11664;49.774;8.650;2023-04-26T02:11:43;3.40;99.90
22996;DHT22;11664;49.774;8.650;2023-04-26T02:14:08;3.40;99.90
22996;DHT22;11664;49.774;8.650;2023-04-26T02:16:34;3.50;99.90
22996;DHT22;11664;49.774;8.650;2023-04-26T02:18:59;3.50;99.90
22996;DHT22;11664;49.774;8.650;2023-04-26T02:21:25;3.40;99.90
22996;DHT22;11664;49.774;8.650;2023-04-26T02:23:52;3.40;99.90
22996;DHT22;11664;49.774;8.650;2023-04-26T02:26:18;3.30;99.90
22996;DHT22;11664;49.774;8.650;2023-04-26T02:28:43;3.30;99.90
22996;DHT22;11664;49.774;8.650;2023-04-26T02:31:09;3.30;99.90
22996;DHT22;11664;49.774;8.650;2023-04-26T02:33:35;3.20;99.90
22996;DHT22;11664;49.774;8.650;2023-04-26T02:36:04;3.30;99.90
22996;DHT22;11664;49.774;8.650;2023-04-26T02:38:33;3.30;99.90
22996;DHT22;11664;49.774;8.650;2023-04-26T02:41:01;3.30;99.90
22996;DHT22;11664;49.774;8.650;2023-04-26T02:43:28;3.20;99.90
22996;DHT22;11664;49.774;8.650;2023-04-26T02:45:53;3.20;99.90
22996;DHT22;11664;49.774;8.650;2023-04-26T02:48:19;3.20;99.90
22996;DHT22;11664;49.774;8.650;2023-04-26T02:50:46;3.10;99.90
22996;DHT22;11664;49.774;8.650;2023-04-26T02:53:11;3.10;99.90
22996;DHT22;11664;49.774;8.650;2023-04-26T02:55:38;3.10;99.90
22996;DHT22;11664;49.774;8.650;2023-04-26T02:58:04;3.00;99.90
22996;DHT22;11664;49.774;8.650;2023-04-26T03:00:29;3.00;99.90
22996;DHT22;11664;49.774;8.650;2023-04-26T03:02:55;3.00;99.90
22996;DHT22;11664;49.774;8.650;2023-04-26T03:05:21;3.00;99.90
22996;DHT22;11664;49.774;8.650;2023-04-26T03:07:47;3.00;99.90
22996;DHT22;11664;49.774;8.650;2023-04-26T03:10:12;3.00;99.90
22996;DHT22;11664;49.774;8.650;2023-04-26T03:12:38;3.00;99.90
22996;DHT22;11664;49.774;8.650;2023-04-26T03:15:04;3.00;99.90
22996;DHT22;11664;49.774;8.650;2023-04-26T03:17:30;3.10;99.90
22996;DHT22;11664;49.774;8.650;2023-04-26T03:19:56;3.10;99.90
22996;DHT22;11664;49.774;8.650;2023-04-26T03:22:22;3.10;99.90
22996;DHT22;11664;49.774;8.650;2023-04-26T03:24:48;3.10;99.90
22996;DHT22;11664;49.774;8.650;2023-04-26T03:27:13;3.00;99.90
22996;DHT22;11664;49.774;8.650;2023-04-26T03:29:39;3.00;99.90
22996;DHT22;11664;49.774;8.650;2023-04-26T03:32:04;3.00;99.90
22996;DHT22;11664;49.774;8.650;2023-04-26T03:34:31;3.00;99.90
22996;DHT22;11664;49.774;8.650;2023-04-26T03:36:56;3.00;99.90
22996;DHT22;11664;49.774;8.650;2023-04-26T03:39:22;3.00;99.90
22996;DHT22;11664;49.774;8.650;2023-04-26T03:41:48;3.00;99.90
22996;DHT22;11664;49.774;8.650;2023-04-26T03:44:13;3.00;99.90
22996;DHT22;11664;49.774;8.650;2023-04-26T03:46:39;2.90;99.90
22996;DHT22;11664;49.774;8.650;2023-04-26T03:49:05;2.90;99.90
22996;DHT22;11664;49.774;8.650;2023-04-26T03:51:31;2.80;99.90
22996;DHT22;11664;49.774;8.650;2023-04-26T03:53:57;2.80;99.90
22996;DHT22;11664;49.774;8.650;2023-04-26T03:56:23;2.80;99.90
22996;DHT22;11664;49.774;8.650;2023-04-26T03:58:48;2.80;99.90
22996;DHT22;11664;49.774;8.650;2023-04-26T04:01:14;2.80;99.90
22996;DHT22;11664;49.774;8.650;2023-04-26T04:03:40;2.90;99.90
22996;DHT22;11664;49.774;8.650;2023-04-26T04:06:05;2.90;99.90
22996;DHT22;11664;49.774;8.650;2023-04-26T04:08:31;2.80;99.90
22996;DHT22;11664;49.774;8.650;2023-04-26T04:10:56;2.80;99.90
22996;DHT22;11664;49.774;8.650;2023-04-26T04:13:22;2.80;99.90
22996;DHT22;11664;49.774;8.650;2023-04-26T04:15:47;2.80;99.90
22996;DHT22;11664;49.774;8.650;2023-04-26T04:18:13;2.70;99.90
22996;DHT22;11664;49.774;8.650;2023-04-26T04:20:40;2.70;99.90
22996;DHT22;11664;49.774;8.650;2023-04-26T04:23:05;2.80;99.90
22996;DHT22;11664;49.774;8.650;2023-04-26T04:25:32;2.70;99.90
22996;DHT22;11664;49.774;8.650;2023-04-26T04:27:59;2.80;99.90
22996;DHT22;11664;49.774;8.650;2023-04-26T04:30:26;2.90;99.90
22996;DHT22;11664;49.774;8.650;2023-04-26T04:32:52;2.90;99.90
22996;DHT22;11664;49.774;8.650;2023-04-26T04:35:17;2.90;99.90
22996;DHT22;11664;49.774;8.650;2023-04-26T04:37:43;2.90;99.90
22996;DHT22;11664;49.774;8.650;2023-04-26T04:40:10;2.80;99.90
22996;DHT22;11664;49.774;8.650;2023-04-26T04:42:36;2.80;99.90
22996;DHT22;11664;49.774;8.650;2023-04-26T04:45:01;2.80;99.90
22996;DHT22;11664;49.774;8.650;2023-04-26T04:47:27;2.80;99.90
22996;DHT22;11664;49.774;8.650;2023-04-26T04:49:53;2.80;99.90
22996;DHT22;11664;49.774;8.650;2023-04-26T04:52:19;2.80;99.90
22996;DHT22;11664;49.774;8.650;2023-04-26T04:54:46;2.80;99.90
22996;DHT22;11664;49.774;8.650;2023-04-26T04:57:11;2.90;99.90
22996;DHT22;11664;49.774;8.650;2023-04-26T04:59:38;2.80;99.90
22996;DHT22;11664;49.774;8.650;2023-04-26T05:02:03;2.90;99.90
22996;DHT22;11664;49.774;8.650;2023-04-26T05:04:29;2.90;99.90
22996;DHT22;11664;49.774;8.650;2023-04-26T05:06:58;2.90;99.90
22996;DHT22;11664;49.774;8.650;2023-04-26T05:09:24;2.90;99.90
22996;DHT22;11664;49.774;8.650;2023-04-26T05:11:50;2.90;99.90
22996;DHT22;11664;49.774;8.650;2023-04-26T05:14:15;3.00;99.90
22996;DHT22;11664;49.774;8.650;2023-04-26T05:16:41;3.00;99.90
22996;DHT22;11664;49.774;8.650;2023-04-26T05:19:06;3.00;99.90
22996;DHT22;11664;49.774;8.650;2023-04-26T05:21:32;3.10;99.90
22996;DHT22;11664;49.774;8.650;2023-04-26T05:23:57;3.10;99.90
22996;DHT22;11664;49.774;8.650;2023-04-26T05:26:23;3.10;99.90
22996;DHT22;11664;49.774;8.650;2023-04-26T05:28:48;3.10;99.90
22996;DHT22;11664;49.774;8.650;2023-04-26T05:31:14;3.10;99.90
22996;DHT22;11664;49.774;8.650;2023-04-26T05:33:39;3.20;99.90
22996;DHT22;11664;49.774;8.650;2023-04-26T05:36:06;3.20;99.90
22996;DHT22;11664;49.774;8.650;2023-04-26T05:38:31;3.30;99.90
22996;DHT22;11664;49.774;8.650;2023-04-26T05:40:57;3.30;99.90
22996;DHT22;11664;49.774;8.650;2023-04-26T05:43:22;3.40;99.90
22996;DHT22;11664;49.774;8.650;2023-04-26T05:45:54;3.50;99.90
22996;DHT22;11664;49.774;8.650;2023-04-26T05:48:21;3.50;99.90
22996;DHT22;11664;49.774;8.650;2023-04-26T05:50:47;3.50;99.90
22996;DHT22;11664;49.774;8.650;2023-04-26T05:53:13;3.60;99.90
22996;DHT22;11664;49.774;8.650;2023-04-26T05:55:40;3.80;99.90
22996;DHT22;11664;49.774;8.650;2023-04-26T05:58:06;3.90;99.90
22996;DHT22;11664;49.774;8.650;2023-04-26T06:00:32;3.90;99.90
22996;DHT22;11664;49.774;8.650;2023-04-26T06:02:57;4.00;99.90
22996;DHT22;11664;49.774;8.650;2023-04-26T06:05:23;4.10;99.90
22996;DHT22;11664;49.774;8.650;2023-04-26T06:07:49;4.20;99.90
22996;DHT22;11664;49.774;8.650;2023-04-26T06:10:15;4.30;99.90
22996;DHT22;11664;49.774;8.650;2023-04-26T06:12:40;4.50;99.90
22996;DHT22;11664;49.774;8.650;2023-04-26T06:15:06;4.60;99.90
22996;DHT22;11664;49.774;8.650;2023-04-26T06:17:32;4.80;99.90
22996;DHT22;11664;49.774;8.650;2023-04-26T06:19:58;4.90;99.90
22996;DHT22;11664;49.774;8.650;2023-04-26T06:22:23;5.00;99.90
22996;DHT22;11664;49.774;8.650;2023-04-26T06:24:49;5.10;99.90
22996;DHT22;11664;49.774;8.650;2023-04-26T06:27:14;5.20;99.90
22996;DHT22;11664;49.774;8.650;2023-04-26T06:29:40;5.30;99.90
22996;DHT22;11664;49.774;8.650;2023-04-26T06:32:07;5.40;99.90
22996;DHT22;11664;49.774;8.650;2023-04-26T06:34:33;5.50;99.90
22996;DHT22;11664;49.774;8.650;2023-04-26T06:36:59;5.50;99.90
22996;DHT22;11664;49.774;8.650;2023-04-26T06:39:24;5.70;99.90
22996;DHT22;11664;49.774;8.650;2023-04-26T06:41:50;5.70;99.90
22996;DHT22;11664;49.774;8.650;2023-04-26T06:44:15;5.80;99.90
22996;DHT22;11664;49.774;8.650;2023-04-26T06:46:41;5.80;99.90
22996;DHT22;11664;49.774;8.650;2023-04-26T06:49:06;5.90;99.90
22996;DHT22;11664;49.774;8.650;2023-04-26T06:51:32;5.90;99.90
22996;DHT22;11664;49.774;8.650;2023-04-26T06:53:57;6.00;99.90
22996;DHT22;11664;49.774;8.650;2023-04-26T06:56:25;6.10;99.90
22996;DHT22;11664;49.774;8.650;2023-04-26T06:59:04;6.20;99.90
22996;DHT22;11664;49.774;8.650;2023-04-26T07:01:31;6.30;99.90
22996;DHT22;11664;49.774;8.650;2023-04-26T07:04:03;6.40;99.90
22996;DHT22;11664;49.774;8.650;2023-04-26T07:06:31;6.50;99.90
22996;DHT22;11664;49.774;8.650;2023-04-26T07:08:58;6.60;99.90
22996;DHT22;11664;49.774;8.650;2023-04-26T07:11:24;6.80;99.90
22996;DHT22;11664;49.774;8.650;2023-04-26T07:13:50;7.00;99.90
22996;DHT22;11664;49.774;8.650;2023-04-26T07:16:15;7.10;99.90
22996;DHT22;11664;49.774;8.650;2023-04-26T07:18:41;7.20;99.90
22996;DHT22;11664;49.774;8.650;2023-04-26T07:21:07;7.30;99.90
22996;DHT22;11664;49.774;8.650;2023-04-26T07:23:33;7.40;99.90
22996;DHT22;11664;49.774;8.650;2023-04-26T07:25:58;7.50;99.90
22996;DHT22;11664;49.774;8.650;2023-04-26T07:28:26;7.60;99.90
22996;DHT22;11664;49.774;8.650;2023-04-26T07:30:52;7.70;99.90
22996;DHT22;11664;49.774;8.650;2023-04-26T07:33:17;7.80;99.90
22996;DHT22;11664;49.774;8.650;2023-04-26T07:35:43;7.90;99.90
22996;DHT22;11664;49.774;8.650;2023-04-26T07:38:08;8.00;99.90
22996;DHT22;11664;49.774;8.650;2023-04-26T07:40:34;8.10;99.90
22996;DHT22;11664;49.774;8.650;2023-04-26T07:43:01;8.30;99.90
22996;DHT22;11664;49.774;8.650;2023-04-26T07:45:26;8.40;99.90
22996;DHT22;11664;49.774;8.650;2023-04-26T07:47:52;8.40;99.90
22996;DHT22;11664;49.774;8.650;2023-04-26T07:50:19;8.40;99.90
22996;DHT22;11664;49.774;8.650;2023-04-26T07:52:45;8.40;99.90
22996;DHT22;11664;49.774;8.650;2023-04-26T07:55:10;8.40;99.90
22996;DHT22;11664;49.774;8.650;2023-04-26T07:57:36;8.50;99.90
22996;DHT22;11664;49.774;8.650;2023-04-26T08:00:03;8.50;99.90
22996;DHT22;11664;49.774;8.650;2023-04-26T08:02:32;8.50;99.90
22996;DHT22;11664;49.774;8.650;2023-04-26T08:04:57;8.40;99.90
22996;DHT22;11664;49.774;8.650;2023-04-26T08:07:23;8.50;99.90
22996;DHT22;11664;49.774;8.650;2023-04-26T08:09:48;8.50;99.90
22996;DHT22;11664;49.774;8.650;2023-04-26T08:12:14;8.70;99.90
22996;DHT22;11664;49.774;8.650;2023-04-26T08:14:40;8.90;99.90
22996;DHT22;11664;49.774;8.650;2023-04-26T08:17:06;9.00;99.90
22996;DHT22;11664;49.774;8.650;2023-04-26T08:19:33;9.20;99.90
22996;DHT22;11664;49.774;8.650;2023-04-26T08:21:59;9.30;99.90
22996;DHT22;11664;49.774;8.650;2023-04-26T08:24:24;9.20;99.90
22996;DHT22;11664;49.774;8.650;2023-04-26T08:26:50;9.20;99.90
22996;DHT22;11664;49.774;8.650;2023-04-26T08:29:15;9.30;99.90
22996;DHT22;11664;49.774;8.650;2023-04-26T08:31:41;9.40;99.90
22996;DHT22;11664;49.774;8.650;2023-04-26T08:34:07;9.50;99.90
22996;DHT22;11664;49.774;8.650;2023-04-26T08:36:44;9.60;99.90
22996;DHT22;11664;49.774;8.650;2023-04-26T08:39:10;9.70;99.90
22996;DHT22;11664;49.774;8.650;2023-04-26T08:41:43;9.80;99.90
22996;DHT22;11664;49.774;8.650;2023-04-26T08:44:10;10.10;99.90
22996;DHT22;11664;49.774;8.650;2023-04-26T08:46:46;10.40;99.90
22996;DHT22;11664;49.774;8.650;2023-04-26T08:51:50;10.70;99.90
22996;DHT22;11664;49.774;8.650;2023-04-26T08:54:18;10.90;99.90
22996;DHT22;11664;49.774;8.650;2023-04-26T08:56:45;11.10;99.90
22996;DHT22;11664;49.774;8.650;2023-04-26T08:59:12;11.20;99.90
22996;DHT22;11664;49.774;8.650;2023-04-26T09:01:42;11.00;99.90
22996;DHT22;11664;49.774;8.650;2023-04-26T09:04:08;10.90;99.90
22996;DHT22;11664;49.774;8.650;2023-04-26T09:06:34;10.80;99.90
22996;DHT22;11664;49.774;8.650;2023-04-26T09:09:02;10.80;99.90
22996;DHT22;11664;49.774;8.650;2023-04-26T09:11:51;10.80;99.90
22996;DHT22;11664;49.774;8.650;2023-04-26T09:14:18;11.00;99.90
22996;DHT22;11664;49.774;8.650;2023-04-26T09:16:43;11.10;99.90
22996;DHT22;11664;49.774;8.650;2023-04-26T09:19:09;11.30;99.90
22996;DHT22;11664;49.774;8.650;2023-04-26T09:21:44;11.50;99.90
22996;DHT22;11664;49.774;8.650;2023-04-26T09:24:10;11.60;99.90
22996;DHT22;11664;49.774;8.650;2023-04-26T09:26:36;11.70;99.90
22996;DHT22;11664;49.774;8.650;2023-04-26T09:29:13;11.80;99.90
22996;DHT22;11664;49.774;8.650;2023-04-26T09:31:43;12.00;99.90
22996;DHT22;11664;49.774;8.650;2023-04-26T09:34:10;12.30;99.90
22996;DHT22;11664;49.774;8.650;2023-04-26T09:36:55;12.60;99.90
22996;DHT22;11664;49.774;8.650;2023-04-26T09:39:38;12.70;99.90
22996;DHT22;11664;49.774;8.650;2023-04-26T09:42:16;12.50;97.50
22996;DHT22;11664;49.774;8.650;2023-04-26T09:44:43;12.40;97.90
22996;DHT22;11664;49.774;8.650;2023-04-26T09:47:10;12.10;99.90
22996;DHT22;11664;49.774;8.650;2023-04-26T09:49:44;12.00;98.60
22996;DHT22;11664;49.774;8.650;2023-04-26T09:52:11;12.00;97.30
22996;DHT22;11664;49.774;8.650;2023-04-26T09:57:03;12.30;93.60
22996;DHT22;11664;49.774;8.650;2023-04-26T09:59:42;12.40;92.90
22996;DHT22;11664;49.774;8.650;2023-04-26T10:02:25;12.50;91.80
22996;DHT22;11664;49.774;8.650;2023-04-26T10:04:53;12.60;89.00
22996;DHT22;11664;49.774;8.650;2023-04-26T10:07:22;12.70;90.20
22996;DHT22;11664;49.774;8.650;2023-04-26T10:09:48;12.90;88.30
22996;DHT22;11664;49.774;8.650;2023-04-26T10:12:15;13.20;90.00
22996;DHT22;11664;49.774;8.650;2023-04-26T10:14:42;13.30;86.10
22996;DHT22;11664;49.774;8.650;2023-04-26T10:17:09;13.40;84.40
22996;DHT22;11664;49.774;8.650;2023-04-26T10:19:40;13.20;81.40
22996;DHT22;11664;49.774;8.650;2023-04-26T10:22:13;13.00;82.30
22996;DHT22;11664;49.774;8.650;2023-04-26T10:24:42;12.60;79.10
22996;DHT22;11664;49.774;8.650;2023-04-26T10:27:08;12.70;85.80
22996;DHT22;11664;49.774;8.650;2023-04-26T10:32:19;12.90;88.10
22996;DHT22;11664;49.774;8.650;2023-04-26T10:35:11;13.20;86.60
22996;DHT22;11664;49.774;8.650;2023-04-26T10:40:33;13.50;82.90
22996;DHT22;11664;49.774;8.650;2023-04-26T10:45:39;13.60;84.00
22996;DHT22;11664;49.774;8.650;2023-04-26T10:48:16;13.50;86.70
22996;DHT22;11664;49.774;8.650;2023-04-26T10:55:59;13.10;87.30
22996;DHT22;11664;49.774;8.650;2023-04-26T10:58:32;13.10;84.80
22996;DHT22;11664;49.774;8.650;2023-04-26T11:01:04;12.90;82.80
22996;DHT22;11664;49.774;8.650;2023-04-26T11:03:31;13.10;83.40
22996;DHT22;11664;49.774;8.650;2023-04-26T11:05:57;13.40;84.00
22996;DHT22;11664;49.774;8.650;2023-04-26T11:08:27;13.50;81.80
22996;DHT22;11664;49.774;8.650;2023-04-26T11:13:35;13.30;81.00
22996;DHT22;11664;49.774;8.650;2023-04-26T11:16:02;13.30;82.20
22996;DHT22;11664;49.774;8.650;2023-04-26T11:18:29;13.50;82.20
22996;DHT22;11664;49.774;8.650;2023-04-26T11:20:55;13.60;81.40
22996;DHT22;11664;49.774;8.650;2023-04-26T11:23:22;13.90;83.20
22996;DHT22;11664;49.774;8.650;2023-04-26T11:25:48;14.40;84.50
22996;DHT22;11664;49.774;8.650;2023-04-26T11:28:14;14.80;84.10
22996;DHT22;11664;49.774;8.650;2023-04-26T11:30:40;15.20;87.30
22996;DHT22;11664;49.774;8.650;2023-04-26T11:33:06;15.20;77.10
22996;DHT22;11664;49.774;8.650;2023-04-26T11:35:40;15.30;80.90
22996;DHT22;11664;49.774;8.650;2023-04-26T11:38:06;15.30;78.00
22996;DHT22;11664;49.774;8.650;2023-04-26T11:40:32;15.80;81.00
22996;DHT22;11664;49.774;8.650;2023-04-26T11:43:05;15.90;76.60
22996;DHT22;11664;49.774;8.650;2023-04-26T11:45:32;16.30;81.30
22996;DHT22;11664;49.774;8.650;2023-04-26T11:47:59;16.80;79.20
22996;DHT22;11664;49.774;8.650;2023-04-26T11:50:26;16.80;73.00
22996;DHT22;11664;49.774;8.650;2023-04-26T11:52:56;16.70;72.40
22996;DHT22;11664;49.774;8.650;2023-04-26T11:55:27;16.70;73.80
22996;DHT22;11664;49.774;8.650;2023-04-26T11:57:53;16.70;73.40
22996;DHT22;11664;49.774;8.650;2023-04-26T12:00:20;16.30;70.80
22996;DHT22;11664;49.774;8.650;2023-04-26T12:02:47;16.30;71.20
22996;DHT22;11664;49.774;8.650;2023-04-26T12:05:27;16.10;73.50
22996;DHT22;11664;49.774;8.650;2023-04-26T12:07:57;16.30;71.40
22996;DHT22;11664;49.774;8.650;2023-04-26T12:10:31;16.60;75.90
22996;DHT22;11664;49.774;8.650;2023-04-26T12:12:58;17.20;75.60
22996;DHT22;11664;49.774;8.650;2023-04-26T12:15:31;17.40;69.90
22996;DHT22;11664;49.774;8.650;2023-04-26T12:18:09;17.00;68.80
22996;DHT22;11664;49.774;8.650;2023-04-26T12:20:36;17.30;77.60
22996;DHT22;11664;49.774;8.650;2023-04-26T12:23:04;17.90;78.90
22996;DHT22;11664;49.774;8.650;2023-04-26T12:25:31;18.20;74.50
22996;DHT22;11664;49.774;8.650;2023-04-26T12:27:58;18.30;70.40
22996;DHT22;11664;49.774;8.650;2023-04-26T12:30:25;18.20;70.40
22996;DHT22;11664;49.774;8.650;2023-04-26T12:32:51;17.90;67.30
22996;DHT22;11664;49.774;8.650;2023-04-26T12:35:17;17.60;66.30
22996;DHT22;11664;49.774;8.650;2023-04-26T12:37:42;17.20;68.90
22996;DHT22;11664;49.774;8.650;2023-04-26T12:40:09;17.20;68.40
22996;DHT22;11664;49.774;8.650;2023-04-26T12:42:34;17.30;67.10
22996;DHT22;11664;49.774;8.650;2023-04-26T12:45:00;17.50;67.90
22996;DHT22;11664;49.774;8.650;2023-04-26T12:47:26;17.70;70.50
22996;DHT22;11664;49.774;8.650;2023-04-26T12:49:51;17.20;66.70
22996;DHT22;11664;49.774;8.650;2023-04-26T12:52:17;17.00;67.10
22996;DHT22;11664;49.774;8.650;2023-04-26T12:54:42;16.50;65.90
22996;DHT22;11664;49.774;8.650;2023-04-26T12:57:09;16.40;69.70
22996;DHT22;11664;49.774;8.650;2023-04-26T12:59:35;16.60;70.10
22996;DHT22;11664;49.774;8.650;2023-04-26T13:02:00;16.70;68.20
22996;DHT22;11664;49.774;8.650;2023-04-26T13:04:27;16.80;68.60
22996;DHT22;11664;49.774;8.650;2023-04-26T13:06:54;17.20;70.60
22996;DHT22;11664;49.774;8.650;2023-04-26T13:09:19;17.70;71.50
22996;DHT22;11664;49.774;8.650;2023-04-26T13:11:45;17.80;68.90
22996;DHT22;11664;49.774;8.650;2023-04-26T13:14:11;17.40;69.30
22996;DHT22;11664;49.774;8.650;2023-04-26T13:16:36;17.20;68.40
22996;DHT22;11664;49.774;8.650;2023-04-26T13:19:06;16.90;69.10
22996;DHT22;11664;49.774;8.650;2023-04-26T13:21:32;17.00;71.00
22996;DHT22;11664;49.774;8.650;2023-04-26T13:23:57;16.40;69.00
22996;DHT22;11664;49.774;8.650;2023-04-26T13:26:23;16.10;70.10
22996;DHT22;11664;49.774;8.650;2023-04-26T13:28:48;16.40;75.00
22996;DHT22;11664;49.774;8.650;2023-04-26T13:31:14;16.90;69.40
22996;DHT22;11664;49.774;8.650;2023-04-26T13:33:41;17.40;68.30
22996;DHT22;11664;49.774;8.650;2023-04-26T13:36:07;17.40;65.80
22996;DHT22;11664;49.774;8.650;2023-04-26T13:38:32;17.60;67.40
22996;DHT22;11664;49.774;8.650;2023-04-26T13:40:58;17.80;67.20
22996;DHT22;11664;49.774;8.650;2023-04-26T13:43:23;18.10;67.40
22996;DHT22;11664;49.774;8.650;2023-04-26T13:45:49;18.10;63.90
22996;DHT22;11664;49.774;8.650;2023-04-26T13:48:15;18.20;71.10
22996;DHT22;11664;49.774;8.650;2023-04-26T13:50:40;18.20;65.30
22996;DHT22;11664;49.774;8.650;2023-04-26T13:53:06;18.60;69.10
22996;DHT22;11664;49.774;8.650;2023-04-26T13:55:31;18.70;63.60
22996;DHT22;11664;49.774;8.650;2023-04-26T13:57:57;18.40;63.80
22996;DHT22;11664;49.774;8.650;2023-04-26T14:00:22;18.00;61.90
22996;DHT22;11664;49.774;8.650;2023-04-26T14:02:48;17.70;62.40
22996;DHT22;11664;49.774;8.650;2023-04-26T14:05:14;17.10;63.80
22996;DHT22;11664;49.774;8.650;2023-04-26T14:07:40;16.70;62.70
22996;DHT22;11664;49.774;8.650;2023-04-26T14:10:06;16.70;64.70
22996;DHT22;11664;49.774;8.650;2023-04-26T14:12:32;16.80;63.40
22996;DHT22;11664;49.774;8.650;2023-04-26T14:14:58;17.10;65.90
22996;DHT22;11664;49.774;8.650;2023-04-26T14:17:26;17.40;64.10
22996;DHT22;11664;49.774;8.650;2023-04-26T14:19:53;17.50;61.60
22996;DHT22;11664;49.774;8.650;2023-04-26T14:22:19;17.30;61.30
22996;DHT22;11664;49.774;8.650;2023-04-26T14:24:45;17.60;63.00
22996;DHT22;11664;49.774;8.650;2023-04-26T14:27:11;17.90;65.30
22996;DHT22;11664;49.774;8.650;2023-04-26T14:29:36;18.30;63.30
22996;DHT22;11664;49.774;8.650;2023-04-26T14:32:02;18.50;61.10
22996;DHT22;11664;49.774;8.650;2023-04-26T14:34:27;18.80;61.00
22996;DHT22;11664;49.774;8.650;2023-04-26T14:36:53;18.50;60.20
22996;DHT22;11664;49.774;8.650;2023-04-26T14:39:18;18.40;62.70
22996;DHT22;11664;49.774;8.650;2023-04-26T14:41:44;18.30;62.60
22996;DHT22;11664;49.774;8.650;2023-04-26T14:44:10;17.90;62.30
22996;DHT22;11664;49.774;8.650;2023-04-26T14:46:36;17.80;63.10
22996;DHT22;11664;49.774;8.650;2023-04-26T14:49:01;17.60;63.80
22996;DHT22;11664;49.774;8.650;2023-04-26T14:51:27;16.90;61.60
22996;DHT22;11664;49.774;8.650;2023-04-26T14:53:53;16.50;62.70
22996;DHT22;11664;49.774;8.650;2023-04-26T14:56:18;16.20;63.00
22996;DHT22;11664;49.774;8.650;2023-04-26T14:58:44;16.10;64.20
22996;DHT22;11664;49.774;8.650;2023-04-26T15:01:10;16.00;64.00
22996;DHT22;11664;49.774;8.650;2023-04-26T15:03:35;15.50;64.40
22996;DHT22;11664;49.774;8.650;2023-04-26T15:06:01;15.40;66.10
22996;DHT22;11664;49.774;8.650;2023-04-26T15:08:26;15.40;66.60
22996;DHT22;11664;49.774;8.650;2023-04-26T15:10:52;15.50;66.80
22996;DHT22;11664;49.774;8.650;2023-04-26T15:13:18;15.60;67.20
22996;DHT22;11664;49.774;8.650;2023-04-26T15:15:43;15.70;66.90
22996;DHT22;11664;49.774;8.650;2023-04-26T15:18:09;15.70;65.80
22996;DHT22;11664;49.774;8.650;2023-04-26T15:20:38;16.10;64.10
22996;DHT22;11664;49.774;8.650;2023-04-26T15:23:04;16.20;65.20
22996;DHT22;11664;49.774;8.650;2023-04-26T15:25:33;16.50;67.90
22996;DHT22;11664;49.774;8.650;2023-04-26T15:27:59;17.10;65.60
22996;DHT22;11664;49.774;8.650;2023-04-26T15:30:24;17.40;63.80
22996;DHT22;11664;49.774;8.650;2023-04-26T15:32:50;18.10;62.80
22996;DHT22;11664;49.774;8.650;2023-04-26T15:35:16;18.80;59.80
22996;DHT22;11664;49.774;8.650;2023-04-26T15:37:41;19.00;56.90
22996;DHT22;11664;49.774;8.650;2023-04-26T15:40:08;18.10;58.70
22996;DHT22;11664;49.774;8.650;2023-04-26T15:42:35;17.80;58.10
22996;DHT22;11664;49.774;8.650;2023-04-26T15:45:01;17.70;60.10
22996;DHT22;11664;49.774;8.650;2023-04-26T15:47:27;17.70;58.50
22996;DHT22;11664;49.774;8.650;2023-04-26T15:49:52;17.80;59.90
22996;DHT22;11664;49.774;8.650;2023-04-26T15:52:19;17.80;59.40
22996;DHT22;11664;49.774;8.650;2023-04-26T15:54:45;18.00;58.50
22996;DHT22;11664;49.774;8.650;2023-04-26T15:57:11;18.40;58.00
22996;DHT22;11664;49.774;8.650;2023-04-26T15:59:36;18.70;59.20
22996;DHT22;11664;49.774;8.650;2023-04-26T16:02:02;19.70;58.20